New Castle Airport Wilmington US
ICAO: KILG
IATA: ILG
Category: Medium
Scheduled Services: Yes

Elevation: 80 ft
TransAlt. 18000 ft.

Airport Communications:
PHILADELPHIA APP/DEP:118.35
ATIS:123.95
CLNC DEL:119.95
CTAF:126
GND:121.7
ARNG OPS:46.9
WILMINGTON COMD POST:34.3
MILLVILLE RDO:114
WILMINGTON TWR:126
UNICOM:122.95

KILG Zoom In..

Runways:

(A) RW 01 length 7012 ft width 150 ft
ILS 110.30 / hdg 15

(B) RW 09 length 7275 ft width 150 ft
---- / hdg 88

(C) RW 14 length 4602 ft width 150 ft
---- / hdg 141

(D) RW 19 length 7012 ft width 150 ft
---- / hdg 195

(E) RW 27 length 7275 ft width 150 ft
---- / hdg 268

(F) RW 32 length 4602 ft width 150 ft
---- / hdg 321

Location; KILG
Day. 29 / Time. 23.20 Zulu
* Altimeter: 29.82
* Temperature: 11° c. 51.8°f.
* Wind from: 060° Speed 07 kn.
Dewpoint: 10° c.
Visibility: 3/4 Statute Miles.
Clouds: Overcast 300 ft.
Conditions: Mist.

KILG 292320Z 06007KT 3/4SM R01/5500VP6000FT BR OVC003 11/10 A2982 RMK AO2 T01110100


Wind From 060°
Speed 07 kn.

 
 
jpsmedia worldairports.se 2020   terms of use